createdAt,value
2023-03-10T00:03:23.222Z,7.13
2023-03-10T00:08:23.602Z,7.23
2023-03-10T00:13:23.112Z,7.26
2023-03-10T00:18:23.054Z,7.35
2023-03-10T00:23:22.985Z,7.34
2023-03-10T00:28:22.923Z,7.41
2023-03-10T00:33:22.818Z,7.56
2023-03-10T00:38:22.772Z,7.81
2023-03-10T00:43:22.731Z,7.89
2023-03-10T00:48:22.684Z,7.90
2023-03-10T00:53:22.585Z,7.94
2023-03-10T00:58:22.497Z,8.03
2023-03-10T01:03:22.431Z,7.96
2023-03-10T01:08:22.364Z,8.08
2023-03-10T01:13:22.320Z,8.12
2023-03-10T01:18:22.235Z,8.17
2023-03-10T01:23:22.267Z,8.25
2023-03-10T01:28:22.154Z,8.28
2023-03-10T01:33:22.085Z,8.39
2023-03-10T01:38:22.063Z,8.50
2023-03-10T01:43:22.004Z,8.58
2023-03-10T01:48:21.875Z,8.68
2023-03-10T01:53:21.826Z,8.73
2023-03-10T01:58:21.780Z,8.88
2023-03-10T02:03:21.684Z,8.94
2023-03-10T02:08:21.650Z,8.93
2023-03-10T02:13:21.515Z,8.93
2023-03-10T02:18:21.562Z,8.93
2023-03-10T02:23:21.433Z,8.93
2023-03-10T02:28:21.356Z,9.01
2023-03-10T02:33:21.287Z,8.94
2023-03-10T02:38:21.207Z,8.94
2023-03-10T02:43:21.115Z,8.99
2023-03-10T02:48:21.084Z,8.94
2023-03-10T02:53:21.056Z,9.06
2023-03-10T02:58:21.019Z,9.57
2023-03-10T03:03:20.923Z,10.03
2023-03-10T03:08:20.838Z,10.28
2023-03-10T03:13:20.729Z,10.34
2023-03-10T03:18:20.702Z,10.33
2023-03-10T03:23:20.681Z,10.22
2023-03-10T03:28:20.561Z,10.07
2023-03-10T03:33:20.507Z,9.91
2023-03-10T03:38:20.430Z,9.86
2023-03-10T03:43:20.323Z,9.86
2023-03-10T03:48:22.410Z,9.93
2023-03-10T03:53:20.244Z,9.99
2023-03-10T03:58:20.168Z,9.96
2023-03-10T04:03:20.210Z,10.00
2023-03-10T04:08:20.010Z,10.10
2023-03-10T04:13:19.988Z,10.04
2023-03-10T04:18:19.892Z,9.86
2023-03-10T04:23:19.829Z,9.75
2023-03-10T04:28:19.787Z,9.67
2023-03-10T04:33:19.680Z,9.66
2023-03-10T04:38:19.655Z,9.56
2023-03-10T04:43:19.644Z,9.42
2023-03-10T04:48:19.553Z,9.38
2023-03-10T04:53:20.976Z,9.21
2023-03-10T04:58:19.356Z,9.20
2023-03-10T05:03:19.287Z,9.24
2023-03-10T05:08:19.300Z,9.34
2023-03-10T05:13:19.169Z,9.50
2023-03-10T05:18:19.087Z,9.81
2023-03-10T05:23:19.067Z,9.94
2023-03-10T05:28:18.969Z,10.00
2023-03-10T05:33:18.938Z,10.00
2023-03-10T05:38:18.921Z,10.01
2023-03-10T05:43:18.775Z,10.04
2023-03-10T05:48:18.782Z,10.14
2023-03-10T05:53:18.667Z,10.18
2023-03-10T05:58:18.639Z,10.32
2023-03-10T06:03:18.580Z,10.51
2023-03-10T06:08:18.458Z,10.59
2023-03-10T06:13:18.427Z,10.68
2023-03-10T06:18:18.608Z,10.71
2023-03-10T06:23:18.257Z,10.77
2023-03-10T06:28:18.208Z,10.89
2023-03-10T06:33:18.117Z,10.94
2023-03-10T06:38:18.095Z,10.92
2023-03-10T06:43:18.221Z,11.16
2023-03-10T06:48:17.930Z,11.24
2023-03-10T06:53:17.870Z,11.24
2023-03-10T06:58:17.821Z,11.39
2023-03-10T07:03:17.761Z,11.44
2023-03-10T07:08:17.676Z,11.44
2023-03-10T07:13:17.622Z,11.56
2023-03-10T07:18:17.549Z,11.54
2023-03-10T07:23:17.472Z,11.70
2023-03-10T07:28:17.390Z,11.82
2023-03-10T07:33:17.338Z,12.23
2023-03-10T07:38:17.260Z,12.33
2023-03-10T07:43:17.227Z,12.38
2023-03-10T07:48:17.156Z,12.62
2023-03-10T07:53:17.044Z,12.67
2023-03-10T07:58:17.023Z,12.52
2023-03-10T08:03:17.022Z,12.48
2023-03-10T08:08:16.881Z,12.82
2023-03-10T08:13:16.857Z,12.99
2023-03-10T08:18:16.774Z,12.99
2023-03-10T08:23:16.705Z,13.03
2023-03-10T08:28:16.649Z,13.44
2023-03-10T08:33:16.601Z,13.81
2023-03-10T08:38:16.482Z,13.96
2023-03-10T08:43:16.396Z,14.37
2023-03-10T08:48:16.350Z,14.64
2023-03-10T08:53:16.273Z,14.90
2023-03-10T08:58:16.329Z,14.83
2023-03-10T09:03:16.233Z,14.72
2023-03-10T09:08:16.085Z,15.08
2023-03-10T09:13:16.016Z,15.42
2023-03-10T09:18:16.030Z,15.42
2023-03-10T09:23:15.860Z,15.84
2023-03-10T09:28:18.240Z,16.01
2023-03-10T09:33:15.748Z,15.78
2023-03-10T09:38:15.720Z,15.61
2023-03-10T09:43:15.676Z,15.42
2023-03-10T09:48:15.570Z,15.30
2023-03-10T09:53:15.472Z,15.82
2023-03-10T09:58:15.425Z,16.23
2023-03-10T10:03:15.444Z,16.59
2023-03-10T10:08:15.288Z,16.92
2023-03-10T10:13:15.211Z,16.68
2023-03-10T10:18:20.749Z,16.73
2023-03-10T10:23:16.096Z,17.53
2023-03-10T10:28:15.099Z,17.89
2023-03-10T10:33:15.013Z,18.04
2023-03-10T10:38:14.890Z,17.79
2023-03-10T10:43:14.851Z,17.40
2023-03-10T10:48:14.772Z,17.32
2023-03-10T10:53:14.692Z,17.26
2023-03-10T10:58:14.868Z,17.15
2023-03-10T11:03:14.556Z,17.26
2023-03-10T11:08:14.543Z,17.06
2023-03-10T11:13:14.429Z,17.04
2023-03-10T11:18:14.377Z,17.07
2023-03-10T11:23:14.328Z,17.08
2023-03-10T11:28:14.290Z,16.74
2023-03-10T11:33:14.170Z,16.98
2023-03-10T11:38:14.097Z,16.92
2023-03-10T11:43:14.068Z,16.98
2023-03-10T11:48:14.009Z,17.29
2023-03-10T11:53:14.023Z,17.43
2023-03-10T11:58:13.815Z,17.43
2023-03-10T12:03:13.883Z,17.23
2023-03-10T12:08:13.710Z,17.08
2023-03-10T12:13:13.664Z,17.29
2023-03-10T12:18:13.636Z,17.29
2023-03-10T12:23:13.543Z,17.66
2023-03-10T12:28:13.430Z,17.63
2023-03-10T12:33:13.423Z,17.18
2023-03-10T12:38:13.295Z,16.78
2023-03-10T12:43:13.250Z,16.30
2023-03-10T12:48:13.200Z,16.15
2023-03-10T12:53:13.141Z,16.22
2023-03-10T12:58:13.066Z,16.25
2023-03-10T13:03:12.994Z,16.25
2023-03-10T13:08:12.944Z,16.27
2023-03-10T13:13:12.907Z,16.65
2023-03-10T13:18:12.771Z,17.20
2023-03-10T13:23:12.703Z,17.35
2023-03-10T13:28:12.677Z,17.67
2023-03-10T13:33:12.667Z,17.32
2023-03-10T13:38:12.511Z,17.03
2023-03-10T13:43:12.470Z,16.93
2023-03-10T13:48:12.415Z,16.83
2023-03-10T13:53:12.362Z,16.85
2023-03-10T13:58:12.279Z,16.90
2023-03-10T14:03:12.218Z,16.88
2023-03-10T14:08:12.149Z,16.85
2023-03-10T14:13:12.084Z,16.74
2023-03-10T14:18:12.016Z,16.55
2023-03-10T14:23:11.947Z,16.31
2023-03-10T14:28:11.821Z,15.92
2023-03-10T14:33:11.764Z,15.45
2023-03-10T14:38:11.744Z,14.81
2023-03-10T14:43:11.660Z,13.84
2023-03-10T14:48:11.792Z,13.24
2023-03-10T14:53:11.616Z,12.67
2023-03-10T14:58:11.442Z,12.24
2023-03-10T15:03:11.372Z,11.75
2023-03-10T15:08:11.699Z,11.78
2023-03-10T15:13:11.241Z,11.86
2023-03-10T15:18:11.241Z,11.85
2023-03-10T15:23:13.221Z,11.97
2023-03-10T15:28:11.061Z,11.86
2023-03-10T15:33:11.126Z,12.79
2023-03-10T15:38:11.005Z,12.96
2023-03-10T15:43:11.019Z,13.15
2023-03-10T15:48:10.916Z,13.04
2023-03-10T15:53:10.920Z,13.47
2023-03-10T15:58:10.736Z,14.50
2023-03-10T16:03:10.597Z,13.52
2023-03-10T16:08:10.550Z,13.44
2023-03-10T16:13:10.469Z,13.22
2023-03-10T16:18:10.389Z,13.12
2023-03-10T16:23:10.321Z,12.67
2023-03-10T16:28:10.294Z,12.26
2023-03-10T16:33:10.192Z,11.90
2023-03-10T16:38:10.122Z,12.20
2023-03-10T16:43:10.246Z,12.09
2023-03-10T16:48:10.104Z,12.19
2023-03-10T16:53:09.948Z,12.51
2023-03-10T16:58:09.874Z,12.27
2023-03-10T17:03:09.847Z,12.11
2023-03-10T17:08:09.909Z,11.77
2023-03-10T17:13:09.693Z,11.78
2023-03-10T17:18:09.631Z,11.78
2023-03-10T17:23:09.622Z,11.64
2023-03-10T17:28:09.466Z,11.27
2023-03-10T17:33:10.163Z,11.34
2023-03-10T17:38:09.325Z,11.11
2023-03-10T17:43:23.190Z,11.07
2023-03-10T17:48:10.194Z,11.01
2023-03-10T17:53:09.185Z,10.91
2023-03-10T17:58:09.120Z,10.71
2023-03-10T18:03:09.228Z,10.68
2023-03-10T18:08:08.985Z,10.55
2023-03-10T18:13:08.924Z,10.46
2023-03-10T18:18:08.887Z,10.26
2023-03-10T18:23:08.809Z,10.17
2023-03-10T18:28:08.899Z,9.99
2023-03-10T18:33:08.659Z,9.75
2023-03-10T18:38:08.669Z,9.53
2023-03-10T18:43:08.573Z,9.52
2023-03-10T18:48:08.428Z,9.48
2023-03-10T18:53:08.439Z,9.52
2023-03-10T18:58:08.401Z,9.42
2023-03-10T19:03:08.325Z,9.31
2023-03-10T19:08:08.163Z,9.46
2023-03-10T19:13:08.170Z,9.75
2023-03-10T19:18:08.013Z,9.96
2023-03-10T19:23:08.136Z,10.17
2023-03-10T19:28:07.890Z,10.22
2023-03-10T19:33:08.115Z,10.47
2023-03-10T19:38:07.741Z,10.89
2023-03-10T19:43:07.696Z,10.86
2023-03-10T19:48:07.645Z,10.74
2023-03-10T19:53:07.543Z,10.78
2023-03-10T19:58:07.488Z,10.78
2023-03-10T20:03:07.570Z,10.51
2023-03-10T20:08:07.377Z,10.40
2023-03-10T20:13:07.285Z,10.40
2023-03-10T20:18:07.287Z,10.43
2023-03-10T20:23:07.256Z,10.32
2023-03-10T20:28:07.125Z,10.10
2023-03-10T20:33:07.038Z,10.00
2023-03-10T20:38:06.952Z,10.12
2023-03-10T20:43:06.931Z,10.18
2023-03-10T20:48:07.079Z,10.33
2023-03-10T20:53:06.770Z,10.04
2023-03-10T20:58:06.711Z,10.12
2023-03-10T21:03:06.614Z,9.83
2023-03-10T21:08:06.557Z,9.86
2023-03-10T21:13:06.551Z,9.89
2023-03-10T21:18:06.459Z,9.57
2023-03-10T21:23:06.438Z,9.58
2023-03-10T21:28:06.314Z,9.53
2023-03-10T21:33:09.107Z,9.24
2023-03-10T21:38:06.130Z,9.27
2023-03-10T21:43:06.247Z,9.48
2023-03-10T21:48:06.014Z,9.24
2023-03-10T21:53:06.034Z,9.23
2023-03-10T21:58:05.971Z,9.10
2023-03-10T22:03:05.862Z,8.99
2023-03-10T22:08:05.858Z,8.99
2023-03-10T22:13:05.789Z,8.97
2023-03-10T22:18:05.652Z,8.93
2023-03-10T22:23:05.602Z,9.12
2023-03-10T22:28:05.561Z,8.90
2023-03-10T22:33:05.472Z,8.72
2023-03-10T22:38:05.372Z,8.63
2023-03-10T22:43:05.338Z,8.47
2023-03-10T22:48:05.277Z,8.47
2023-03-10T22:53:05.264Z,8.69
2023-03-10T22:58:05.152Z,8.78
2023-03-10T23:03:05.193Z,8.54
2023-03-10T23:08:05.090Z,8.57
2023-03-10T23:13:04.936Z,8.55
2023-03-10T23:18:04.955Z,8.48
2023-03-10T23:23:04.793Z,8.42
2023-03-10T23:28:04.760Z,8.20
2023-03-10T23:33:04.699Z,8.17
2023-03-10T23:38:04.627Z,8.11
2023-03-10T23:43:04.744Z,7.99
2023-03-10T23:48:04.514Z,7.93
2023-03-10T23:53:04.463Z,7.67
2023-03-10T23:58:04.426Z,7.19
